createdAt,value
2016-08-22T00:00:42.567Z,13.83
2016-08-22T00:01:43.250Z,13.82
2016-08-22T00:02:43.254Z,13.79
2016-08-22T00:03:43.250Z,13.8
2016-08-22T00:04:42.546Z,13.73
2016-08-22T00:05:43.250Z,13.78
2016-08-22T00:06:43.251Z,13.8
2016-08-22T00:07:43.251Z,13.79
2016-08-22T00:08:43.251Z,13.79
2016-08-22T00:09:43.247Z,13.73
2016-08-22T00:10:43.246Z,13.78
2016-08-22T00:11:43.251Z,13.76
2016-08-22T00:12:43.247Z,13.79
2016-08-22T00:13:43.247Z,13.82
2016-08-22T00:14:43.247Z,13.78
2016-08-22T00:15:42.539Z,13.94
2016-08-22T00:16:43.243Z,13.89
2016-08-22T00:17:43.243Z,13.83
2016-08-22T00:18:43.258Z,13.85
2016-08-22T00:19:42.535Z,13.98
2016-08-22T00:20:43.243Z,13.93
2016-08-22T00:21:43.244Z,13.86
2016-08-22T00:22:43.238Z,13.97
2016-08-22T00:23:43.239Z,13.95
2016-08-22T00:24:43.239Z,14.03
2016-08-22T00:25:43.239Z,14
2016-08-22T00:26:42.536Z,13.98
2016-08-22T00:27:42.531Z,14.03
2016-08-22T00:28:43.236Z,14.01
2016-08-22T00:29:42.532Z,14.03
2016-08-22T00:30:43.236Z,13.94
2016-08-22T00:31:43.235Z,13.93
2016-08-22T00:32:43.236Z,14.03
2016-08-22T00:33:43.283Z,14
2016-08-22T00:34:43.232Z,13.97
2016-08-22T00:35:43.232Z,14.01
2016-08-22T00:36:43.231Z,13.98
2016-08-22T00:37:42.528Z,13.94
2016-08-22T00:38:42.528Z,13.98
2016-08-22T00:39:43.231Z,14.08
2016-08-22T00:40:42.527Z,14.08
2016-08-22T00:41:43.231Z,14.05
2016-08-22T00:42:43.227Z,14.11
2016-08-22T00:43:43.228Z,14.05
2016-08-22T00:44:43.228Z,14.07
2016-08-22T00:45:43.240Z,14.05
2016-08-22T00:46:43.223Z,14.12
2016-08-22T00:47:43.224Z,14.11
2016-08-22T00:48:42.531Z,14.12
2016-08-22T00:49:43.224Z,14.11
2016-08-22T00:50:43.233Z,14.07
2016-08-22T00:51:43.237Z,14.13
2016-08-22T00:52:42.516Z,14.08
2016-08-22T00:53:43.217Z,14.07
2016-08-22T00:54:43.224Z,14.13
2016-08-22T00:55:43.221Z,14.13
2016-08-22T00:56:43.216Z,14.15
2016-08-22T00:57:42.512Z,14.12
2016-08-22T00:58:43.217Z,14.12
2016-08-22T00:59:43.221Z,14.16
2016-08-22T01:00:43.221Z,14.15
2016-08-22T01:01:43.216Z,14.08
2016-08-22T01:02:42.512Z,14.08
2016-08-22T01:03:43.213Z,14.15
2016-08-22T01:04:43.213Z,14.12
2016-08-22T01:05:43.212Z,14.13
2016-08-22T01:06:43.213Z,14.07
2016-08-22T01:07:43.213Z,14.13
2016-08-22T01:08:43.208Z,14.12
2016-08-22T01:09:43.225Z,14.04
2016-08-22T01:10:43.209Z,14.15
2016-08-22T01:11:43.208Z,14.12
2016-08-22T01:12:43.217Z,14.07
2016-08-22T01:13:43.209Z,14.13
2016-08-22T01:14:42.501Z,14.04
2016-08-22T01:15:42.501Z,14.15
2016-08-22T01:16:43.205Z,14.13
2016-08-22T01:17:43.212Z,14.05
2016-08-22T01:18:43.213Z,14.08
2016-08-22T01:19:42.505Z,14.07
2016-08-22T01:20:43.205Z,14.11
2016-08-22T01:21:42.501Z,14.08
2016-08-22T01:22:42.497Z,14.08
2016-08-22T01:23:43.201Z,14.08
2016-08-22T01:24:42.497Z,14.15
2016-08-22T01:25:43.209Z,14.07
2016-08-22T01:26:43.202Z,14.13
2016-08-22T01:27:42.497Z,14.07
2016-08-22T01:28:43.209Z,14.13
2016-08-22T01:29:43.197Z,14.12
2016-08-22T01:30:42.494Z,14.05
2016-08-22T01:31:43.197Z,14.13
2016-08-22T01:32:43.194Z,14.12
2016-08-22T01:33:43.193Z,14.13
2016-08-22T01:34:43.194Z,14.15
2016-08-22T01:35:43.198Z,14.15
2016-08-22T01:36:43.193Z,14.13
2016-08-22T01:37:43.194Z,14.07
2016-08-22T01:38:43.194Z,14.23
2016-08-22T01:39:43.194Z,14.12
2016-08-22T01:40:43.190Z,14.13
2016-08-22T01:41:43.190Z,14.15
2016-08-22T01:42:43.185Z,14.13
2016-08-22T01:43:43.201Z,14.2
2016-08-22T01:44:42.486Z,14.18
2016-08-22T01:45:43.186Z,14.16
2016-08-22T01:46:43.186Z,14.15
2016-08-22T01:47:43.186Z,14.13
2016-08-22T01:48:43.193Z,14.07
2016-08-22T01:49:42.482Z,14.15
2016-08-22T01:50:42.478Z,14.15
2016-08-22T01:51:43.182Z,14.13
2016-08-22T01:52:43.182Z,14.18
2016-08-22T01:53:43.181Z,14.18
2016-08-22T01:54:43.183Z,14.13
2016-08-22T01:55:42.482Z,14.08
2016-08-22T01:56:43.182Z,14.15
2016-08-22T01:57:43.178Z,14.07
2016-08-22T01:58:43.178Z,14.15
2016-08-22T01:59:43.182Z,14.12
2016-08-22T02:00:43.178Z,14.07
2016-08-22T02:01:43.178Z,14.04
2016-08-22T02:02:42.478Z,14.11
2016-08-22T02:03:43.174Z,14.04
2016-08-22T02:04:43.175Z,14.04
2016-08-22T02:05:43.175Z,14.01
2016-08-22T02:06:43.175Z,14.07
2016-08-22T02:07:43.171Z,14.05
2016-08-22T02:08:43.171Z,14.01
2016-08-22T02:09:42.467Z,13.97
2016-08-22T02:10:43.169Z,13.98
2016-08-22T02:11:43.178Z,13.95
2016-08-22T02:12:43.166Z,13.97
2016-08-22T02:13:43.166Z,13.93
2016-08-22T02:14:43.174Z,13.97
2016-08-22T02:15:43.167Z,13.94
2016-08-22T02:16:43.169Z,14
2016-08-22T02:17:43.166Z,13.95
2016-08-22T02:18:42.463Z,13.95
2016-08-22T02:19:42.459Z,13.83
2016-08-22T02:20:43.162Z,13.87
2016-08-22T02:21:43.163Z,13.85
2016-08-22T02:22:43.162Z,13.82
2016-08-22T02:23:43.159Z,13.87
2016-08-22T02:24:43.158Z,13.76
2016-08-22T02:25:43.159Z,13.83
2016-08-22T02:26:43.159Z,13.83
2016-08-22T02:27:43.158Z,13.78
2016-08-22T02:28:43.167Z,13.86
2016-08-22T02:29:43.159Z,13.86
2016-08-22T02:30:43.155Z,13.73
2016-08-22T02:31:42.452Z,13.78
2016-08-22T02:32:43.158Z,13.78
2016-08-22T02:33:43.254Z,13.78
2016-08-22T02:34:43.155Z,13.7
2016-08-22T02:35:43.151Z,13.67
2016-08-22T02:36:43.151Z,13.7
2016-08-22T02:37:43.151Z,13.61
2016-08-22T02:38:43.151Z,13.68
2016-08-22T02:39:43.158Z,13.68
2016-08-22T02:40:43.151Z,13.73
2016-08-22T02:41:43.147Z,13.67
2016-08-22T02:42:43.147Z,13.62
2016-08-22T02:43:43.148Z,13.61
2016-08-22T02:44:43.144Z,13.6
2016-08-22T02:45:43.143Z,13.65
2016-08-22T02:46:43.143Z,13.64
2016-08-22T02:47:43.144Z,13.64
2016-08-22T02:48:43.144Z,13.61
2016-08-22T02:49:43.144Z,13.65
2016-08-22T02:50:43.145Z,13.6
2016-08-22T02:51:43.144Z,13.55
2016-08-22T02:52:43.142Z,13.52
2016-08-22T02:53:43.138Z,13.52
2016-08-22T02:54:43.141Z,13.52
2016-08-22T02:55:43.148Z,13.55
2016-08-22T02:56:43.136Z,13.47
2016-08-22T02:57:42.448Z,13.45
2016-08-22T02:58:43.136Z,13.43
2016-08-22T02:59:43.132Z,13.39
2016-08-22T03:00:43.140Z,13.37
2016-08-22T03:01:43.136Z,13.4
2016-08-22T03:02:43.136Z,13.37
2016-08-22T03:03:43.132Z,13.33
2016-08-22T03:04:43.132Z,13.37
2016-08-22T03:05:43.128Z,13.47
2016-08-22T03:06:43.281Z,13.5
2016-08-22T03:07:42.428Z,13.43
2016-08-22T03:08:43.136Z,13.45
2016-08-22T03:09:43.129Z,13.33
2016-08-22T03:10:42.421Z,13.43
2016-08-22T03:11:42.424Z,13.46
2016-08-22T03:12:43.129Z,13.36
2016-08-22T03:13:42.425Z,13.37
2016-08-22T03:14:42.421Z,13.39
2016-08-22T03:15:43.141Z,13.39
2016-08-22T03:16:43.130Z,13.4
2016-08-22T03:17:43.130Z,13.4
2016-08-22T03:18:43.125Z,13.37
2016-08-22T03:19:43.126Z,13.33
2016-08-22T03:20:43.117Z,13.37
2016-08-22T03:21:43.122Z,13.39
2016-08-22T03:22:42.418Z,13.28
2016-08-22T03:23:43.121Z,13.27
2016-08-22T03:24:43.122Z,13.31
2016-08-22T03:25:43.118Z,13.24
2016-08-22T03:26:43.117Z,13.26
2016-08-22T03:27:42.413Z,13.23
2016-08-22T03:28:43.126Z,13.27
2016-08-22T03:29:43.110Z,13.27
2016-08-22T03:30:42.410Z,13.37
2016-08-22T03:31:43.122Z,13.27
2016-08-22T03:32:43.114Z,13.31
2016-08-22T03:33:43.114Z,13.31
2016-08-22T03:34:43.123Z,13.21
2016-08-22T03:35:43.110Z,13.23
2016-08-22T03:36:43.110Z,13.28
2016-08-22T03:37:43.111Z,13.21
2016-08-22T03:38:43.110Z,13.27
2016-08-22T03:39:42.406Z,13.33
2016-08-22T03:40:42.402Z,13.36
2016-08-22T03:41:43.106Z,13.26
2016-08-22T03:42:41.701Z,13.24
2016-08-22T03:43:43.106Z,13.28
2016-08-22T03:44:43.106Z,13.26
2016-08-22T03:45:43.114Z,13.26
2016-08-22T03:46:43.103Z,13.31
2016-08-22T03:47:43.103Z,13.37
2016-08-22T03:48:43.102Z,13.33
2016-08-22T03:49:43.102Z,13.39
2016-08-22T03:50:42.395Z,13.37
2016-08-22T03:51:43.098Z,13.39
2016-08-22T03:52:43.098Z,13.49
2016-08-22T03:53:43.099Z,13.45
2016-08-22T03:54:42.395Z,13.5
2016-08-22T03:55:42.391Z,13.5
2016-08-22T03:56:43.103Z,13.46
2016-08-22T03:57:43.102Z,13.5
2016-08-22T03:58:43.110Z,13.47
2016-08-22T03:59:43.094Z,13.46
2016-08-22T04:00:43.099Z,13.5
2016-08-22T04:01:43.090Z,13.39
2016-08-22T04:02:43.095Z,13.31
2016-08-22T04:03:43.094Z,13.33
2016-08-22T04:04:43.090Z,13.4
2016-08-22T04:05:43.087Z,13.31
2016-08-22T04:06:43.095Z,13.37
2016-08-22T04:07:43.086Z,13.26
2016-08-22T04:08:43.087Z,13.21
2016-08-22T04:09:43.083Z,13.23
2016-08-22T04:10:42.382Z,13.21
2016-08-22T04:11:43.083Z,13.19
2016-08-22T04:12:43.086Z,13.2
2016-08-22T04:13:43.083Z,13.24
2016-08-22T04:14:43.083Z,13.19
2016-08-22T04:15:43.079Z,13.27
2016-08-22T04:16:43.079Z,13.27
2016-08-22T04:17:43.087Z,13.24
2016-08-22T04:18:43.080Z,13.2
2016-08-22T04:19:42.375Z,13.24
2016-08-22T04:20:43.075Z,13.28
2016-08-22T04:21:43.079Z,13.2
2016-08-22T04:22:43.075Z,13.21
2016-08-22T04:23:43.075Z,13.23
2016-08-22T04:24:43.080Z,13.39
2016-08-22T04:25:43.071Z,13.23
2016-08-22T04:26:43.070Z,13.26
2016-08-22T04:27:43.087Z,13.23
2016-08-22T04:28:43.080Z,13.26
2016-08-22T04:29:43.071Z,13.36
2016-08-22T04:30:43.072Z,13.33
2016-08-22T04:31:43.067Z,13.39
2016-08-22T04:32:43.067Z,13.4
2016-08-22T04:33:43.116Z,13.43
2016-08-22T04:34:43.068Z,13.47
2016-08-22T04:35:42.355Z,13.46
2016-08-22T04:36:42.360Z,13.54
2016-08-22T04:37:43.063Z,13.57
2016-08-22T04:38:43.076Z,13.6
2016-08-22T04:39:43.064Z,13.64
2016-08-22T04:40:42.364Z,13.7
2016-08-22T04:41:42.357Z,13.78
2016-08-22T04:42:43.060Z,13.79
2016-08-22T04:43:43.067Z,13.82
2016-08-22T04:44:43.059Z,14.07
2016-08-22T04:45:43.056Z,14.28
2016-08-22T04:46:43.056Z,14.48
2016-08-22T04:47:43.056Z,14.82
2016-08-22T04:48:43.056Z,15.1
2016-08-22T04:49:43.052Z,15.37
2016-08-22T04:50:43.060Z,15.76
2016-08-22T04:51:42.348Z,16.1
2016-08-22T04:52:42.348Z,16.51
2016-08-22T04:53:43.052Z,16.76
2016-08-22T04:54:43.052Z,17.13
2016-08-22T04:55:43.052Z,17.65
2016-08-22T04:56:43.053Z,17.93
2016-08-22T04:57:43.048Z,18.23
2016-08-22T04:58:43.048Z,18.63
2016-08-22T04:59:43.056Z,18.91
2016-08-22T05:00:43.052Z,19.26
2016-08-22T05:01:41.641Z,19.71
2016-08-22T05:02:43.048Z,19.93
2016-08-22T05:03:42.339Z,20.32
2016-08-22T05:04:43.056Z,20.58
2016-08-22T05:05:43.053Z,20.89
2016-08-22T05:06:43.055Z,21.17
2016-08-22T05:07:43.049Z,21.48
2016-08-22T05:08:43.053Z,21.68
2016-08-22T05:09:43.048Z,21.68
2016-08-22T05:10:43.057Z,21.78
2016-08-22T05:11:42.345Z,21.78
2016-08-22T05:12:43.049Z,21.84
2016-08-22T05:13:43.049Z,21.94
2016-08-22T05:14:43.053Z,21.91
2016-08-22T05:15:43.052Z,22.21
2016-08-22T05:16:43.053Z,22.3
2016-08-22T05:17:43.062Z,22.52
2016-08-22T05:18:42.349Z,22.67
2016-08-22T05:19:42.348Z,22.74
2016-08-22T05:20:43.057Z,22.83
2016-08-22T05:21:43.057Z,23.06
2016-08-22T05:22:43.057Z,23.07
2016-08-22T05:23:43.061Z,23.18
2016-08-22T05:24:43.061Z,23.42
2016-08-22T05:25:43.061Z,23.44
2016-08-22T05:26:43.061Z,23.51
2016-08-22T05:27:43.068Z,23.63
2016-08-22T05:28:43.065Z,23.82
2016-08-22T05:29:43.070Z,23.96
2016-08-22T05:30:43.070Z,24.06
2016-08-22T05:31:42.369Z,24.22
2016-08-22T05:32:43.073Z,24.38
2016-08-22T05:33:43.073Z,24.55
2016-08-22T05:34:43.077Z,24.58
2016-08-22T05:35:42.377Z,24.74
2016-08-22T05:36:43.082Z,24.96
2016-08-22T05:37:43.081Z,25.09
2016-08-22T05:38:43.086Z,25.33
2016-08-22T05:39:43.090Z,25.49
2016-08-22T05:40:42.389Z,25.83
2016-08-22T05:41:43.093Z,25.99
2016-08-22T05:42:42.389Z,26.18
2016-08-22T05:43:43.101Z,26.23
2016-08-22T05:44:43.101Z,26.49
2016-08-22T05:45:43.102Z,26.73
2016-08-22T05:46:42.401Z,26.79
2016-08-22T05:47:42.406Z,27.03
2016-08-22T05:48:43.110Z,27.19
2016-08-22T05:49:43.113Z,27.45
2016-08-22T05:50:42.421Z,27.76
2016-08-22T05:51:43.122Z,28.01
2016-08-22T05:52:43.121Z,28.38
2016-08-22T05:53:43.126Z,28.65
2016-08-22T05:54:43.130Z,29.06
2016-08-22T05:55:43.138Z,29.43
2016-08-22T05:56:43.142Z,29.94
2016-08-22T05:57:42.442Z,30.49
2016-08-22T05:58:41.734Z,30.99
2016-08-22T05:59:43.149Z,31.36
2016-08-22T06:00:41.742Z,31.77
2016-08-22T06:01:43.158Z,32.09
2016-08-22T06:02:42.454Z,32.46
2016-08-22T06:03:43.162Z,32.88
2016-08-22T06:04:43.165Z,33.13
2016-08-22T06:05:42.465Z,33.38
2016-08-22T06:06:43.174Z,33.65
2016-08-22T06:07:43.179Z,33.85
2016-08-22T06:08:43.182Z,34.24
2016-08-22T06:09:43.198Z,34.33
2016-08-22T06:10:42.486Z,34.82
2016-08-22T06:11:42.494Z,35.01
2016-08-22T06:12:43.211Z,34.93
2016-08-22T06:13:43.206Z,34.94
2016-08-22T06:14:43.211Z,34.83
2016-08-22T06:15:43.213Z,34.56
2016-08-22T06:16:42.522Z,34.47
2016-08-22T06:17:43.242Z,34.29
2016-08-22T06:18:43.234Z,34.32
2016-08-22T06:19:43.235Z,34.28
2016-08-22T06:20:42.539Z,34.37
2016-08-22T06:21:42.548Z,34.18
2016-08-22T06:22:42.546Z,33.89
2016-08-22T06:23:42.554Z,33.54
2016-08-22T06:24:42.558Z,32.95
2016-08-22T06:25:43.283Z,32.37
2016-08-22T06:26:43.271Z,31.79
2016-08-22T06:27:43.271Z,31.1
2016-08-22T06:28:43.295Z,30.46
2016-08-22T06:29:43.287Z,29.87
2016-08-22T06:30:43.291Z,29.34
2016-08-22T06:31:43.295Z,29.3
2016-08-22T06:32:43.299Z,29.68
2016-08-22T06:33:43.354Z,30.21
2016-08-22T06:34:43.315Z,31.11
2016-08-22T06:35:43.317Z,31.97
2016-08-22T06:36:43.323Z,32.76
2016-08-22T06:37:42.623Z,33.53
2016-08-22T06:38:43.331Z,34.4
2016-08-22T06:39:43.335Z,34.96
2016-08-22T06:40:43.348Z,34.85
2016-08-22T06:41:43.354Z,34.37
2016-08-22T06:42:43.351Z,33.88
2016-08-22T06:43:42.651Z,33.44
2016-08-22T06:44:43.364Z,32.98
2016-08-22T06:45:43.367Z,32.56
2016-08-22T06:46:43.371Z,32.04
2016-08-22T06:47:43.380Z,31.67
2016-08-22T06:48:43.384Z,31.17
2016-08-22T06:49:43.393Z,30.69
2016-08-22T06:50:42.689Z,30.27
2016-08-22T06:51:42.696Z,29.98
2016-08-22T06:52:43.404Z,29.5
2016-08-22T06:53:43.412Z,29.05
2016-08-22T06:54:43.412Z,28.57
2016-08-22T06:55:42.716Z,28.23
2016-08-22T06:56:43.424Z,28.09
2016-08-22T06:57:43.429Z,27.82
2016-08-22T06:58:43.432Z,27.81
2016-08-22T06:59:43.440Z,27.93
2016-08-22T07:00:43.444Z,28.09
2016-08-22T07:01:42.743Z,28.57
2016-08-22T07:02:42.748Z,29.5
2016-08-22T07:03:42.752Z,30.46
2016-08-22T07:04:43.463Z,31.47
2016-08-22T07:05:43.465Z,32.3
2016-08-22T07:06:42.064Z,33.16
2016-08-22T07:07:42.068Z,33.98
2016-08-22T07:08:43.481Z,34.75
2016-08-22T07:09:43.484Z,35.5
2016-08-22T07:10:43.493Z,35.88
2016-08-22T07:11:43.496Z,36.45
2016-08-22T07:12:43.517Z,36.63
2016-08-22T07:13:43.513Z,36.6
2016-08-22T07:14:42.809Z,36.18
2016-08-22T07:15:43.521Z,35.93
2016-08-22T07:16:43.525Z,35.59
2016-08-22T07:17:43.528Z,35.57
2016-08-22T07:18:43.542Z,35.54
2016-08-22T07:19:43.541Z,35.45
2016-08-22T07:20:43.553Z,35.53
2016-08-22T07:21:43.554Z,35.6
2016-08-22T07:22:43.561Z,35.54
2016-08-22T07:23:43.565Z,35.35
2016-08-22T07:24:43.570Z,35.07
2016-08-22T07:25:42.874Z,34.59
2016-08-22T07:26:42.881Z,34.24
2016-08-22T07:27:43.589Z,34.09
2016-08-22T07:28:42.889Z,34.43
2016-08-22T07:29:42.898Z,35.03
2016-08-22T07:30:42.901Z,35.76
2016-08-22T07:31:43.613Z,36.7
2016-08-22T07:32:42.914Z,37.61
2016-08-22T07:33:43.626Z,38.47
2016-08-22T07:34:43.630Z,39.11
2016-08-22T07:35:43.637Z,39.6
2016-08-22T07:36:42.942Z,39.86
2016-08-22T07:37:43.649Z,39.97
2016-08-22T07:38:42.954Z,39.98
2016-08-22T07:39:43.668Z,40.1
2016-08-22T07:40:43.674Z,39.98
2016-08-22T07:41:43.686Z,40.02
2016-08-22T07:42:43.685Z,40.08
2016-08-22T07:43:43.689Z,40.12
2016-08-22T07:44:43.698Z,40.4
2016-08-22T07:45:43.707Z,40.61
2016-08-22T07:46:43.714Z,40.62
2016-08-22T07:47:43.730Z,40.71
2016-08-22T07:48:43.726Z,40.95
2016-08-22T07:49:43.030Z,41.2
2016-08-22T07:50:43.039Z,41.14
2016-08-22T07:51:43.750Z,41.22
2016-08-22T07:52:43.051Z,41.32
2016-08-22T07:53:43.762Z,41.26
2016-08-22T07:54:43.770Z,41.48
2016-08-22T07:55:43.087Z,41.83
2016-08-22T07:56:43.786Z,42.02
2016-08-22T07:57:43.795Z,42.06
2016-08-22T07:58:43.806Z,41.98
2016-08-22T07:59:43.806Z,41.78
2016-08-22T08:00:43.111Z,41.49
2016-08-22T08:01:43.823Z,41.3
2016-08-22T08:02:43.830Z,41.33
2016-08-22T08:03:43.855Z,41.46
2016-08-22T08:04:43.847Z,41.73
2016-08-22T08:05:43.867Z,42.21
2016-08-22T08:06:43.159Z,42.33
2016-08-22T08:07:43.871Z,42.49
2016-08-22T08:08:43.891Z,42.46
2016-08-22T08:09:42.479Z,42.47
2016-08-22T08:10:43.891Z,42.47
2016-08-22T08:11:43.899Z,42.21
2016-08-22T08:12:43.207Z,42.1
2016-08-22T08:13:43.915Z,42.09
2016-08-22T08:14:43.927Z,42.41
2016-08-22T08:15:43.931Z,42.65
2016-08-22T08:16:43.940Z,42.81
2016-08-22T08:17:43.948Z,42.93
2016-08-22T08:18:43.255Z,42.97
2016-08-22T08:19:43.964Z,42.7
2016-08-22T08:20:43.972Z,42.33
2016-08-22T08:21:43.976Z,42.12
2016-08-22T08:22:43.984Z,42.06
2016-08-22T08:23:44.004Z,42.18
2016-08-22T08:24:44.000Z,42.14
2016-08-22T08:25:43.303Z,42.24
2016-08-22T08:26:43.311Z,42.32
2016-08-22T08:27:44.024Z,42.47
2016-08-22T08:28:43.328Z,42.65
2016-08-22T08:29:43.332Z,42.7
2016-08-22T08:30:44.060Z,42.61
2016-08-22T08:31:43.348Z,42.62
2016-08-22T08:32:43.356Z,42.61
2016-08-22T08:33:44.069Z,42.81
2016-08-22T08:34:44.076Z,42.9
2016-08-22T08:35:44.084Z,42.93
2016-08-22T08:36:43.385Z,43.09
2016-08-22T08:37:42.689Z,43.39
2016-08-22T08:38:43.401Z,43.35
2016-08-22T08:39:43.408Z,43.43
2016-08-22T08:40:43.421Z,43.36
2016-08-22T08:41:43.425Z,42.78
2016-08-22T08:42:44.133Z,42.28
2016-08-22T08:43:44.141Z,42.4
2016-08-22T08:44:44.149Z,42.62
2016-08-22T08:45:43.453Z,42.81
2016-08-22T08:46:42.753Z,42.93
2016-08-22T08:47:44.181Z,42.74
2016-08-22T08:48:43.473Z,42.55
2016-08-22T08:49:44.189Z,42.43
2016-08-22T08:50:44.189Z,42.62
2016-08-22T08:51:44.197Z,42.7
2016-08-22T08:52:44.201Z,42.94
2016-08-22T08:53:44.210Z,43.07
2016-08-22T08:54:44.218Z,43.11
2016-08-22T08:55:44.217Z,43.19
2016-08-22T08:56:43.525Z,43.02
2016-08-22T08:57:44.238Z,43.03
2016-08-22T08:58:44.241Z,43.02
2016-08-22T08:59:44.250Z,43
2016-08-22T09:00:43.550Z,42.96
2016-08-22T09:01:43.565Z,42.93
2016-08-22T09:02:44.270Z,43.03
2016-08-22T09:03:44.273Z,43.02
2016-08-22T09:04:44.281Z,43.25
2016-08-22T09:05:44.286Z,43.19
2016-08-22T09:06:44.298Z,43.16
2016-08-22T09:07:43.594Z,43.05
2016-08-22T09:08:44.308Z,43.11
2016-08-22T09:09:44.311Z,43
2016-08-22T09:10:44.319Z,43.08
2016-08-22T09:11:44.322Z,43.09
2016-08-22T09:12:44.330Z,43.41
2016-08-22T09:13:44.335Z,43.28
2016-08-22T09:14:44.342Z,43.39
2016-08-22T09:15:44.346Z,43.25
2016-08-22T09:16:43.650Z,43.07
2016-08-22T09:17:44.358Z,42.81
2016-08-22T09:18:44.367Z,42.63
2016-08-22T09:19:44.374Z,42.52
2016-08-22T09:20:44.374Z,42.52
2016-08-22T09:21:44.382Z,42.65
2016-08-22T09:22:43.683Z,42.7
2016-08-22T09:23:43.687Z,42.7
2016-08-22T09:24:44.415Z,42.74
2016-08-22T09:25:44.403Z,42.51
2016-08-22T09:26:44.406Z,41.78
2016-08-22T09:27:43.707Z,40.88
2016-08-22T09:28:44.419Z,40.1
2016-08-22T09:29:43.718Z,39.66
2016-08-22T09:30:43.723Z,39.25
2016-08-22T09:31:44.435Z,38.98
2016-08-22T09:32:44.443Z,38.7
2016-08-22T09:33:44.544Z,38.47
2016-08-22T09:34:43.755Z,37.98
2016-08-22T09:35:43.747Z,37.43
2016-08-22T09:36:44.455Z,36.73
2016-08-22T09:37:43.764Z,36.18
2016-08-22T09:38:44.467Z,35.27
2016-08-22T09:39:43.062Z,34.62
2016-08-22T09:40:44.475Z,33.82
2016-08-22T09:41:44.480Z,33.22
2016-08-22T09:42:43.775Z,32.63
2016-08-22T09:43:43.080Z,32.01
2016-08-22T09:44:44.492Z,31.57
2016-08-22T09:45:43.791Z,31.1
2016-08-22T09:46:44.508Z,30.7
2016-08-22T09:47:44.507Z,30.1
2016-08-22T09:48:44.512Z,29.53
2016-08-22T09:49:44.520Z,29.2
2016-08-22T09:50:44.520Z,28.83
2016-08-22T09:51:44.523Z,28.43
2016-08-22T09:52:44.528Z,28.27
2016-08-22T09:53:44.532Z,27.94
2016-08-22T09:54:44.541Z,27.73
2016-08-22T09:55:44.540Z,27.44
2016-08-22T09:56:44.543Z,27.22
2016-08-22T09:57:44.547Z,26.98
2016-08-22T09:58:43.852Z,26.81
2016-08-22T09:59:44.555Z,26.64
2016-08-22T10:00:43.855Z,26.36
2016-08-22T10:01:44.564Z,26.31
2016-08-22T10:02:43.864Z,26.11
2016-08-22T10:03:44.571Z,26.06
2016-08-22T10:04:44.576Z,25.93
2016-08-22T10:05:44.580Z,25.81
2016-08-22T10:06:44.587Z,25.74
2016-08-22T10:07:43.888Z,25.71
2016-08-22T10:08:44.592Z,25.59
2016-08-22T10:09:44.608Z,25.4
2016-08-22T10:10:44.596Z,25.39
2016-08-22T10:11:43.896Z,25.36
2016-08-22T10:12:43.908Z,25.29
2016-08-22T10:13:44.608Z,25.31
2016-08-22T10:14:44.612Z,25.25
2016-08-22T10:15:43.916Z,25.29
2016-08-22T10:16:44.621Z,25.33
2016-08-22T10:17:44.631Z,25.31
2016-08-22T10:18:44.624Z,25.25
2016-08-22T10:19:44.633Z,25.25
2016-08-22T10:20:44.631Z,25.16
2016-08-22T10:21:43.932Z,25.16
2016-08-22T10:22:44.640Z,25.22
2016-08-22T10:23:44.647Z,25.12
2016-08-22T10:24:43.944Z,25.21
2016-08-22T10:25:44.653Z,25.26
2016-08-22T10:26:44.648Z,25.29
2016-08-22T10:27:44.656Z,25.34
2016-08-22T10:28:44.660Z,25.34
2016-08-22T10:29:43.959Z,25.31
2016-08-22T10:30:43.968Z,25.36
2016-08-22T10:31:43.969Z,25.34
2016-08-22T10:32:43.968Z,25.36
2016-08-22T10:33:43.973Z,25.39
2016-08-22T10:34:44.681Z,25.3
2016-08-22T10:35:43.276Z,25.24
2016-08-22T10:36:44.705Z,25.16
2016-08-22T10:37:43.994Z,25.14
2016-08-22T10:38:44.712Z,24.97
2016-08-22T10:39:44.697Z,24.96
2016-08-22T10:40:44.701Z,25.06
2016-08-22T10:41:44.705Z,25.06
2016-08-22T10:42:44.005Z,25.18
2016-08-22T10:43:44.009Z,25.25
2016-08-22T10:44:44.713Z,25.34
2016-08-22T10:45:44.717Z,25.25
2016-08-22T10:46:44.726Z,25.3
2016-08-22T10:47:44.725Z,25.3
2016-08-22T10:48:44.725Z,25.37
2016-08-22T10:49:44.728Z,25.34
2016-08-22T10:50:44.733Z,25.33
2016-08-22T10:51:44.738Z,25.29
2016-08-22T10:52:44.741Z,25.29
2016-08-22T10:53:44.742Z,25.29
2016-08-22T10:54:44.746Z,25.34
2016-08-22T10:55:44.748Z,25.39
2016-08-22T10:56:44.759Z,25.29
2016-08-22T10:57:44.753Z,25.14
2016-08-22T10:58:44.757Z,25.09
2016-08-22T10:59:44.760Z,25.12
2016-08-22T11:00:44.765Z,25.18
2016-08-22T11:01:44.773Z,25.16
2016-08-22T11:02:44.768Z,25.22
2016-08-22T11:03:44.070Z,25.16
2016-08-22T11:04:44.777Z,25.07
2016-08-22T11:05:44.777Z,25.04
2016-08-22T11:06:44.789Z,25.07
2016-08-22T11:07:44.794Z,25.07
2016-08-22T11:08:44.789Z,25.07
2016-08-22T11:09:44.789Z,25.04
2016-08-22T11:10:44.793Z,25.01
2016-08-22T11:11:44.797Z,25.25
2016-08-22T11:12:44.797Z,25.46
2016-08-22T11:13:44.802Z,25.67
2016-08-22T11:14:44.805Z,25.67
2016-08-22T11:15:44.806Z,25.66
2016-08-22T11:16:44.822Z,25.71
2016-08-22T11:17:44.814Z,25.76
2016-08-22T11:18:44.818Z,25.58
2016-08-22T11:19:44.819Z,25.49
2016-08-22T11:20:44.822Z,25.43
2016-08-22T11:21:44.826Z,25.46
2016-08-22T11:22:44.826Z,25.41
2016-08-22T11:23:44.830Z,25.4
2016-08-22T11:24:44.834Z,25.34
2016-08-22T11:25:44.833Z,25.36
2016-08-22T11:26:44.838Z,25.36
2016-08-22T11:27:44.842Z,25.41
2016-08-22T11:28:44.842Z,25.51
2016-08-22T11:29:44.846Z,25.55
2016-08-22T11:30:44.850Z,25.71
2016-08-22T11:31:44.853Z,25.81
2016-08-22T11:32:44.855Z,25.86
2016-08-22T11:33:44.861Z,25.83
2016-08-22T11:34:44.862Z,25.74
2016-08-22T11:35:44.963Z,25.76
2016-08-22T11:36:44.875Z,25.67
2016-08-22T11:37:44.870Z,25.74
2016-08-22T11:38:44.874Z,25.67
2016-08-22T11:39:44.874Z,25.67
2016-08-22T11:40:44.878Z,25.8
2016-08-22T11:41:44.883Z,25.73
2016-08-22T11:42:44.883Z,25.83
2016-08-22T11:43:44.886Z,25.86
2016-08-22T11:44:44.891Z,25.83
2016-08-22T11:45:44.891Z,25.83
2016-08-22T11:46:44.894Z,25.74
2016-08-22T11:47:44.899Z,25.77
2016-08-22T11:48:44.899Z,25.63
2016-08-22T11:49:44.914Z,25.62
2016-08-22T11:50:44.923Z,25.49
2016-08-22T11:51:44.907Z,25.36
2016-08-22T11:52:44.910Z,25.3
2016-08-22T11:53:44.915Z,25.11
2016-08-22T11:54:44.915Z,25.06
2016-08-22T11:55:44.919Z,24.97
2016-08-22T11:56:44.923Z,24.75
2016-08-22T11:57:44.923Z,24.79
2016-08-22T11:58:44.927Z,24.77
2016-08-22T11:59:44.938Z,24.79
2016-08-22T12:00:44.931Z,24.74
2016-08-22T12:01:44.935Z,24.93
2016-08-22T12:02:44.947Z,24.97
2016-08-22T12:03:44.943Z,25
2016-08-22T12:04:44.952Z,24.88
2016-08-22T12:05:44.947Z,24.81
2016-08-22T12:06:44.947Z,24.78
2016-08-22T12:07:44.952Z,24.68
2016-08-22T12:08:44.960Z,24.63
2016-08-22T12:09:44.964Z,24.61
2016-08-22T12:10:44.959Z,24.5
2016-08-22T12:11:44.960Z,24.4
2016-08-22T12:12:44.968Z,24.19
2016-08-22T12:13:44.264Z,24.11
2016-08-22T12:14:44.968Z,24.06
2016-08-22T12:15:44.972Z,24.07
2016-08-22T12:16:44.972Z,24.06
2016-08-22T12:17:44.976Z,24.13
2016-08-22T12:18:44.980Z,24.09
2016-08-22T12:19:44.980Z,24.24
2016-08-22T12:20:44.984Z,24.21
2016-08-22T12:21:44.987Z,24.25
2016-08-22T12:22:44.992Z,24.28
2016-08-22T12:23:44.997Z,24.4
2016-08-22T12:24:44.995Z,24.47
2016-08-22T12:25:44.996Z,24.51
2016-08-22T12:26:45.000Z,24.51
2016-08-22T12:27:45.148Z,24.59
2016-08-22T12:28:45.004Z,24.66
2016-08-22T12:29:45.012Z,24.65
2016-08-22T12:30:45.008Z,24.61
2016-08-22T12:31:45.028Z,24.56
2016-08-22T12:32:45.012Z,24.58
2016-08-22T12:33:45.364Z,24.56
2016-08-22T12:34:45.032Z,24.5
2016-08-22T12:35:45.036Z,24.59
2016-08-22T12:36:45.024Z,24.55
2016-08-22T12:37:45.023Z,24.51
2016-08-22T12:38:45.028Z,24.51
2016-08-22T12:39:45.032Z,24.43
2016-08-22T12:40:45.032Z,24.48
2016-08-22T12:41:45.036Z,24.4
2016-08-22T12:42:45.036Z,24.46
2016-08-22T12:43:45.040Z,24.41
2016-08-22T12:44:45.052Z,24.38
2016-08-22T12:45:45.044Z,24.36
2016-08-22T12:46:45.044Z,24.29
2016-08-22T12:47:45.053Z,24.24
2016-08-22T12:48:45.053Z,24.16
2016-08-22T12:49:45.052Z,24.09
2016-08-22T12:50:45.068Z,23.95
2016-08-22T12:51:45.060Z,24.03
2016-08-22T12:52:45.061Z,23.95
2016-08-22T12:53:45.064Z,23.95
2016-08-22T12:54:45.065Z,23.88
2016-08-22T12:55:45.067Z,23.82